createdAt,value
2023-03-06T00:00:15.768Z,0.53
2023-03-06T00:01:15.928Z,0.54
2023-03-06T00:02:15.938Z,0.54
2023-03-06T00:03:16.016Z,0.54
2023-03-06T00:04:16.101Z,0.53
2023-03-06T00:05:16.177Z,0.54
2023-03-06T00:06:16.328Z,0.53
2023-03-06T00:07:16.340Z,0.53
2023-03-06T00:08:16.397Z,0.54
2023-03-06T00:09:16.479Z,0.53
2023-03-06T00:10:16.561Z,0.54
2023-03-06T00:11:16.646Z,0.54
2023-03-06T00:12:16.709Z,0.53
2023-03-06T00:13:16.773Z,0.55
2023-03-06T00:14:16.896Z,0.54
2023-03-06T00:15:16.922Z,0.53
2023-03-06T00:16:17.031Z,0.53
2023-03-06T00:17:17.097Z,0.54
2023-03-06T00:18:17.300Z,0.53
2023-03-06T00:19:17.251Z,0.53
2023-03-06T00:20:17.337Z,0.53
2023-03-06T00:21:17.408Z,0.54
2023-03-06T00:22:17.480Z,0.54
2023-03-06T00:23:17.561Z,0.53
2023-03-06T00:24:17.638Z,0.54
2023-03-06T00:25:17.806Z,0.54
2023-03-06T00:26:17.801Z,0.54
2023-03-06T00:27:17.896Z,0.53
2023-03-06T00:28:18.028Z,0.53
2023-03-06T00:29:18.051Z,0.53
2023-03-06T00:30:18.128Z,0.53
2023-03-06T00:31:18.274Z,0.53
2023-03-06T00:32:18.351Z,0.54
2023-03-06T00:33:18.370Z,0.54
2023-03-06T00:34:18.469Z,0.53
2023-03-06T00:35:18.568Z,0.54
2023-03-06T00:36:18.642Z,0.52
2023-03-06T00:37:18.686Z,0.54
2023-03-06T00:38:18.767Z,0.53
2023-03-06T00:39:18.839Z,0.54
2023-03-06T00:40:19.359Z,0.52
2023-03-06T00:41:19.004Z,0.52
2023-03-06T00:42:19.093Z,0.53
2023-03-06T00:43:19.182Z,0.52
2023-03-06T00:44:19.268Z,0.52
2023-03-06T00:45:19.351Z,0.53
2023-03-06T00:46:19.438Z,0.54
2023-03-06T00:47:19.522Z,0.53
2023-03-06T00:48:19.613Z,0.53
2023-03-06T00:49:19.708Z,0.53
2023-03-06T00:50:19.790Z,0.52
2023-03-06T00:51:19.883Z,0.53
2023-03-06T00:52:19.969Z,0.53
2023-03-06T00:53:20.048Z,0.53
2023-03-06T00:54:20.130Z,0.52
2023-03-06T00:55:20.295Z,0.54
2023-03-06T00:56:20.311Z,0.53
2023-03-06T00:57:20.398Z,0.53
2023-03-06T00:58:20.478Z,0.53
2023-03-06T00:59:20.628Z,0.53
2023-03-06T01:00:20.655Z,0.54
2023-03-06T01:01:20.790Z,0.53
2023-03-06T01:02:20.842Z,0.52
2023-03-06T01:03:20.913Z,0.54
2023-03-06T01:04:21.071Z,0.53
2023-03-06T01:05:21.091Z,0.54
2023-03-06T01:06:21.159Z,0.52
2023-03-06T01:07:21.245Z,0.53
2023-03-06T01:08:21.317Z,0.53
2023-03-06T01:09:21.399Z,0.53
2023-03-06T01:10:21.483Z,0.53
2023-03-06T01:11:21.564Z,0.52
2023-03-06T01:12:23.471Z,0.52
2023-03-06T01:13:21.717Z,0.53
2023-03-06T02:11:25.608Z,0.54
2023-03-06T02:59:27.877Z,0.52
2023-03-06T03:08:27.772Z,0.53
2023-03-06T03:09:27.876Z,0.52
2023-03-06T03:10:27.841Z,0.51
2023-03-06T03:11:27.887Z,0.52
2023-03-06T03:12:27.914Z,0.52
2023-03-06T03:13:27.967Z,0.52
2023-03-06T03:14:28.029Z,0.51
2023-03-06T03:15:28.052Z,0.52
2023-03-06T03:16:28.148Z,0.52
2023-03-06T03:17:28.130Z,0.52
2023-03-06T03:18:28.181Z,0.52
2023-03-06T03:19:28.883Z,0.52
2023-03-06T03:20:28.275Z,0.53
2023-03-06T03:21:28.316Z,0.51
2023-03-06T03:22:28.359Z,0.51
2023-03-06T03:23:28.409Z,0.51
2023-03-06T03:24:28.467Z,0.53
2023-03-06T03:25:28.469Z,0.52
2023-03-06T03:26:28.528Z,0.53
2023-03-06T03:27:28.560Z,0.53
2023-03-06T03:28:28.605Z,0.52
2023-03-06T03:29:28.647Z,0.52
2023-03-06T03:30:28.702Z,0.52
2023-03-06T03:31:28.866Z,0.52
2023-03-06T03:32:28.818Z,0.52
2023-03-06T03:33:28.827Z,0.52
2023-03-06T03:34:28.874Z,0.52
2023-03-06T03:35:28.938Z,0.51
2023-03-06T03:36:28.963Z,0.52
2023-03-06T03:37:29.009Z,0.53
2023-03-06T03:38:29.046Z,0.52
2023-03-06T03:39:29.092Z,0.52
2023-03-06T03:40:29.136Z,0.51
2023-03-06T03:41:29.177Z,0.52
2023-03-06T03:42:29.239Z,0.51
2023-03-06T03:43:29.399Z,0.52
2023-03-06T03:44:29.895Z,0.51
2023-03-06T03:45:29.368Z,0.51
2023-03-06T03:46:29.495Z,0.52
2023-03-06T03:47:29.467Z,0.52
2023-03-06T03:48:29.511Z,0.53
2023-03-06T03:49:29.564Z,0.53
2023-03-06T03:50:29.607Z,0.51
2023-03-06T03:51:29.654Z,0.52
2023-03-06T03:52:29.706Z,0.52
2023-03-06T03:53:29.748Z,0.51
2023-03-06T03:54:29.846Z,0.51
2023-03-06T03:55:29.889Z,0.52
2023-03-06T03:56:30.394Z,0.51
2023-03-06T03:57:29.947Z,0.52
2023-03-06T03:58:29.983Z,0.53
2023-03-06T03:59:30.024Z,0.53
2023-03-06T04:00:30.073Z,0.51
2023-03-06T04:01:30.109Z,0.53
2023-03-06T04:02:30.149Z,0.52
2023-03-06T04:03:30.208Z,0.52
2023-03-06T04:04:30.272Z,0.52
2023-03-06T04:05:30.302Z,0.51
2023-03-06T04:06:30.338Z,0.53
2023-03-06T04:07:30.387Z,0.52
2023-03-06T04:08:30.431Z,0.52
2023-03-06T04:09:30.466Z,0.52
2023-03-06T04:10:30.514Z,0.52
2023-03-06T04:11:30.567Z,0.50
2023-03-06T04:12:30.614Z,0.52
2023-03-06T04:13:30.660Z,0.51
2023-03-06T04:14:30.698Z,0.52
2023-03-06T04:15:30.733Z,0.52
2023-03-06T04:16:30.818Z,0.52
2023-03-06T04:17:30.821Z,0.51
2023-03-06T04:18:30.968Z,0.53
2023-03-06T04:19:30.974Z,0.53
2023-03-06T04:20:30.965Z,0.51
2023-03-06T06:47:38.055Z,1.32
2023-03-06T07:09:37.749Z,2.48
2023-03-06T07:10:37.756Z,2.58
2023-03-06T07:11:37.730Z,2.57
2023-03-06T07:12:37.727Z,2.67
2023-03-06T07:13:37.723Z,2.75
2023-03-06T07:14:37.726Z,2.82
2023-03-06T07:15:38.804Z,2.83
2023-03-06T07:16:37.743Z,2.90
2023-03-06T07:17:38.690Z,2.84
2023-03-06T07:18:37.957Z,2.92
2023-03-06T07:19:38.669Z,3.08
2023-03-06T07:20:37.658Z,3.36
2023-03-06T07:21:37.664Z,3.79
2023-03-06T07:22:50.210Z,3.73
2023-03-06T07:23:39.450Z,3.73
2023-03-06T07:24:37.642Z,3.63
2023-03-06T07:26:37.647Z,3.57
2023-03-06T07:27:37.674Z,3.48
2023-03-06T07:28:51.226Z,3.56
2023-03-06T07:29:38.665Z,3.56
2023-03-06T07:30:37.635Z,3.57
2023-03-06T07:31:38.671Z,3.57
2023-03-06T07:32:37.674Z,3.56
2023-03-06T07:33:38.451Z,3.51
2023-03-06T07:35:37.685Z,3.43
2023-03-06T07:36:37.629Z,3.42
2023-03-06T07:37:37.635Z,3.40
2023-03-06T07:39:37.964Z,3.33
2023-03-06T07:40:37.634Z,3.33
2023-03-06T07:41:37.661Z,3.30
2023-03-06T07:42:37.732Z,3.26
2023-03-06T07:43:37.815Z,3.24
2023-03-06T07:44:37.896Z,3.18
2023-03-06T07:45:37.946Z,3.24
2023-03-06T07:46:38.971Z,3.20
2023-03-06T07:47:38.120Z,3.16
2023-03-06T07:48:38.127Z,3.13
2023-03-06T07:49:38.211Z,3.11
2023-03-06T07:50:38.245Z,3.08
2023-03-06T07:51:38.310Z,3.07
2023-03-06T07:52:38.334Z,3.03
2023-03-06T07:53:38.902Z,3.00
2023-03-06T07:54:38.502Z,3.04
2023-03-06T07:55:38.436Z,3.01
2023-03-06T07:56:38.451Z,2.96
2023-03-06T07:57:38.471Z,2.97
2023-03-06T07:58:38.469Z,2.93
2023-03-06T07:59:38.529Z,2.91
2023-03-06T08:00:38.549Z,2.87
2023-03-06T08:01:38.570Z,2.86
2023-03-06T08:02:38.616Z,2.85
2023-03-06T08:03:38.631Z,2.82
2023-03-06T08:04:38.592Z,2.80
2023-03-06T08:05:39.470Z,2.79
2023-03-06T08:06:38.639Z,2.77
2023-03-06T08:07:38.675Z,2.75
2023-03-06T08:08:38.678Z,2.74
2023-03-06T08:09:38.713Z,2.75
2023-03-06T08:10:38.786Z,2.69
2023-03-06T08:11:38.980Z,2.68
2023-03-06T08:12:38.855Z,2.70
2023-03-06T08:13:38.903Z,2.69
2023-03-06T08:14:38.990Z,2.66
2023-03-06T08:15:39.003Z,2.60
2023-03-06T08:16:39.509Z,2.62
2023-03-06T08:17:39.027Z,2.57
2023-03-06T08:18:39.039Z,2.52
2023-03-06T08:19:39.031Z,2.59
2023-03-06T08:20:39.063Z,2.60
2023-03-06T08:21:39.100Z,2.48
2023-03-06T08:22:39.979Z,2.46
2023-03-06T08:23:39.189Z,2.39
2023-03-06T08:24:39.178Z,2.43
2023-03-06T08:25:39.219Z,2.41
2023-03-06T08:26:39.244Z,2.41
2023-03-06T08:27:39.353Z,2.40
2023-03-06T08:28:39.372Z,2.36
2023-03-06T08:29:39.345Z,2.36
2023-03-06T08:30:39.426Z,2.34
2023-03-06T08:31:39.534Z,2.34
2023-03-06T08:32:39.648Z,2.30
2023-03-06T08:33:39.595Z,2.30
2023-03-06T08:34:39.626Z,2.29
2023-03-06T08:35:39.710Z,2.31
2023-03-06T08:36:39.761Z,2.29
2023-03-06T08:37:39.859Z,2.31
2023-03-06T08:38:39.909Z,2.29
2023-03-06T08:39:39.909Z,2.26
2023-03-06T08:40:41.047Z,2.27
2023-03-06T08:41:40.058Z,2.23
2023-03-06T08:42:40.134Z,2.24
2023-03-06T08:43:40.192Z,2.22
2023-03-06T08:44:40.250Z,2.18
2023-03-06T08:45:40.416Z,2.19
2023-03-06T08:46:40.409Z,2.19
2023-03-06T08:47:40.467Z,2.18
2023-03-06T08:48:40.975Z,2.15
2023-03-06T08:49:40.605Z,2.17
2023-03-06T08:50:40.667Z,2.16
2023-03-06T08:51:40.750Z,2.12
2023-03-06T08:52:40.813Z,2.10
2023-03-06T08:53:43.401Z,2.16
2023-03-06T08:54:40.865Z,2.13
2023-03-06T08:55:40.921Z,2.13
2023-03-06T08:56:40.868Z,2.12
2023-03-06T08:57:40.869Z,2.12
2023-03-06T08:58:40.880Z,2.09
2023-03-06T08:59:40.890Z,2.08
2023-03-06T09:00:40.956Z,2.05
2023-03-06T09:01:40.960Z,2.05
2023-03-06T09:02:40.946Z,2.07
2023-03-06T09:03:40.925Z,2.06
2023-03-06T09:04:40.951Z,2.02
2023-03-06T09:05:40.928Z,2.02
2023-03-06T09:06:40.923Z,2.03
2023-03-06T09:07:40.927Z,2.01
2023-03-06T09:08:40.923Z,1.99
2023-03-06T09:09:40.920Z,1.99
2023-03-06T09:10:40.974Z,1.96
2023-03-06T09:11:40.933Z,1.99
2023-03-06T09:12:50.138Z,1.97
2023-03-06T09:13:42.004Z,1.97
2023-03-06T09:14:41.052Z,1.98
2023-03-06T09:15:41.118Z,1.95
2023-03-06T09:16:41.217Z,1.94
2023-03-06T09:17:41.357Z,1.95
2023-03-06T09:18:41.340Z,1.93
2023-03-06T09:19:41.340Z,1.98
2023-03-06T09:20:41.497Z,1.91
2023-03-06T09:21:41.466Z,1.94
2023-03-06T09:22:41.518Z,1.94
2023-03-06T09:23:41.581Z,1.98
2023-03-06T09:24:41.622Z,1.93
2023-03-06T09:25:41.683Z,1.94
2023-03-06T09:26:46.444Z,1.96
2023-03-06T09:27:42.728Z,1.96
2023-03-06T09:28:41.721Z,1.96
2023-03-06T09:29:41.719Z,1.96
2023-03-06T09:30:41.762Z,1.92
2023-03-06T09:31:41.735Z,1.93
2023-03-06T09:32:41.873Z,1.92
2023-03-06T09:33:41.736Z,1.94
2023-03-06T09:34:41.757Z,1.91
2023-03-06T09:35:41.813Z,1.91
2023-03-06T09:36:55.320Z,1.88
2023-03-06T09:37:43.991Z,1.89
2023-03-06T09:38:42.079Z,1.89
2023-03-06T09:39:42.137Z,1.88
2023-03-06T09:40:42.197Z,1.87
2023-03-06T09:41:42.267Z,1.91
2023-03-06T09:42:42.326Z,1.91
2023-03-06T09:43:42.387Z,1.88
2023-03-06T09:44:42.456Z,1.87
2023-03-06T09:45:42.620Z,1.84
2023-03-06T09:46:42.563Z,1.83
2023-03-06T09:47:42.630Z,1.88
2023-03-06T09:48:42.700Z,1.86
2023-03-06T09:49:42.757Z,1.86
2023-03-06T09:50:42.811Z,1.83
2023-03-06T09:51:42.900Z,1.79
2023-03-06T09:52:42.959Z,1.83
2023-03-06T09:53:43.016Z,1.82
2023-03-06T09:54:43.992Z,1.81
2023-03-06T09:55:43.145Z,1.79
2023-03-06T09:56:43.272Z,1.81
2023-03-06T09:57:43.284Z,1.77
2023-03-06T09:58:43.344Z,1.77
2023-03-06T09:59:43.412Z,1.78
2023-03-06T10:00:43.476Z,1.74
2023-03-06T10:01:43.554Z,1.76
2023-03-06T10:02:43.715Z,1.76
2023-03-06T10:03:43.691Z,1.75
2023-03-06T10:04:43.801Z,1.75
2023-03-06T10:05:43.816Z,1.72
2023-03-06T10:06:43.952Z,1.71
2023-03-06T10:07:43.980Z,1.72
2023-03-06T10:08:44.030Z,1.70
2023-03-06T10:09:44.101Z,1.71
2023-03-06T10:10:45.007Z,1.71
2023-03-06T10:11:44.234Z,1.68
2023-03-06T10:12:44.310Z,1.68
2023-03-06T10:13:44.373Z,1.69
2023-03-06T10:14:46.496Z,1.66
2023-03-06T10:15:44.461Z,1.70
2023-03-06T10:16:44.432Z,1.65
2023-03-06T10:17:44.454Z,1.67
2023-03-06T10:18:44.438Z,1.68
2023-03-06T10:19:44.432Z,1.70
2023-03-06T10:20:44.440Z,1.67
2023-03-06T10:21:44.557Z,1.68
2023-03-06T10:22:48.043Z,1.65
2023-03-06T10:23:45.448Z,1.66
2023-03-06T10:24:44.421Z,1.67
2023-03-06T10:25:44.433Z,1.70
2023-03-06T10:26:44.514Z,1.74
2023-03-06T10:27:44.443Z,1.85
2023-03-06T10:28:44.595Z,1.90
2023-03-06T10:29:56.375Z,1.88
2023-03-06T10:30:45.416Z,1.88
2023-03-06T10:31:44.432Z,1.90
2023-03-06T10:32:48.869Z,1.94
2023-03-06T10:33:45.425Z,1.89
2023-03-06T10:34:44.327Z,1.92
2023-03-06T10:35:44.356Z,1.96
2023-03-06T10:36:45.007Z,2.12
2023-03-06T10:37:44.309Z,2.36
2023-03-06T10:38:44.373Z,2.38
2023-03-06T10:39:44.300Z,2.41
2023-03-06T10:40:44.296Z,2.43
2023-03-06T10:41:45.343Z,2.45
2023-03-06T10:42:44.267Z,2.53
2023-03-06T10:43:44.259Z,2.58
2023-03-06T10:44:44.240Z,2.58
2023-03-06T10:45:49.319Z,2.77
2023-03-06T10:47:44.199Z,2.79
2023-03-06T10:53:44.116Z,3.07
2023-03-06T10:54:44.098Z,3.17
2023-03-06T10:55:44.118Z,3.10
2023-03-06T10:56:44.161Z,3.13
2023-03-06T10:57:44.201Z,3.04
2023-03-06T10:58:44.259Z,3.23
2023-03-06T10:59:44.294Z,3.40
2023-03-06T11:00:44.340Z,3.27
2023-03-06T11:01:44.472Z,3.48
2023-03-06T11:02:44.531Z,3.45
2023-03-06T11:03:44.488Z,3.61
2023-03-06T11:04:44.595Z,3.78
2023-03-06T11:05:44.604Z,3.73
2023-03-06T11:07:44.697Z,3.97
2023-03-06T11:08:44.757Z,4.02
2023-03-06T11:09:44.810Z,4.05
2023-03-06T11:10:44.868Z,3.96
2023-03-06T11:11:45.028Z,4.22
2023-03-06T11:12:44.946Z,4.43
2023-03-06T11:13:45.010Z,4.11
2023-03-06T11:14:45.049Z,4.10
2023-03-06T11:15:45.146Z,4.27
2023-03-06T11:16:45.116Z,3.80
2023-03-06T11:17:45.160Z,3.81
2023-03-06T11:18:45.230Z,3.76
2023-03-06T11:19:45.235Z,3.67
2023-03-06T11:20:51.862Z,3.64
2023-03-06T11:21:46.277Z,3.64
2023-03-06T11:22:45.191Z,3.58
2023-03-06T11:23:45.181Z,3.59
2023-03-06T11:24:45.144Z,3.43
2023-03-06T11:25:45.174Z,3.54
2023-03-06T11:26:45.242Z,3.47
2023-03-06T11:27:46.167Z,3.47
2023-03-06T11:28:45.234Z,3.47
2023-03-06T11:29:45.114Z,3.52
2023-03-06T11:30:45.118Z,3.55
2023-03-06T11:31:45.158Z,3.58
2023-03-06T11:32:45.116Z,3.68
2023-03-06T11:33:45.110Z,3.58
2023-03-06T11:34:45.141Z,3.51
2023-03-06T11:35:45.131Z,3.52
2023-03-06T11:36:45.115Z,3.50
2023-03-06T11:37:45.137Z,3.50
2023-03-06T11:38:45.144Z,3.50
2023-03-06T11:39:45.208Z,3.44
2023-03-06T11:40:45.202Z,3.40
2023-03-06T11:41:45.267Z,3.32
2023-03-06T11:42:45.283Z,3.35
2023-03-06T11:43:45.354Z,3.26
2023-03-06T11:44:45.400Z,3.31
2023-03-06T11:45:45.439Z,3.21
2023-03-06T11:46:45.551Z,3.24
2023-03-06T11:47:45.566Z,3.17
2023-03-06T11:48:45.631Z,3.17
2023-03-06T11:49:45.694Z,3.10
2023-03-06T11:50:46.525Z,3.08
2023-03-06T11:51:45.829Z,3.03
2023-03-06T11:52:45.888Z,3.02
2023-03-06T11:53:45.970Z,2.97
2023-03-06T11:54:46.022Z,2.97
2023-03-06T11:55:46.102Z,2.91
2023-03-06T11:56:46.167Z,2.90
2023-03-06T11:57:46.240Z,2.95
2023-03-06T11:58:46.323Z,2.92
2023-03-06T11:59:46.396Z,2.95
2023-03-06T12:00:46.459Z,2.90
2023-03-06T12:01:46.588Z,2.93
2023-03-06T12:02:46.606Z,2.88
2023-03-06T12:03:46.698Z,2.85
2023-03-06T12:04:46.790Z,2.81
2023-03-06T12:05:46.924Z,2.78
2023-03-06T12:06:46.983Z,2.77
2023-03-06T12:07:47.024Z,2.74
2023-03-06T12:08:47.089Z,2.70
2023-03-06T12:09:47.165Z,2.68
2023-03-06T12:10:51.539Z,2.65
2023-03-06T12:11:48.200Z,2.66
2023-03-06T12:12:47.192Z,2.66
2023-03-06T12:13:47.229Z,2.66
2023-03-06T12:14:47.302Z,2.65
2023-03-06T12:15:47.265Z,2.57
2023-03-06T12:16:47.267Z,2.56
2023-03-06T12:17:47.407Z,2.55
2023-03-06T12:18:47.392Z,2.50
2023-03-06T12:19:47.346Z,2.48
2023-03-06T12:20:47.267Z,2.47
2023-03-06T12:21:47.366Z,2.48
2023-03-06T12:22:57.975Z,2.47
2023-03-06T12:23:48.387Z,2.47
2023-03-06T12:24:47.396Z,2.46
2023-03-06T12:25:47.396Z,2.46
2023-03-06T12:26:47.421Z,2.44
2023-03-06T12:27:47.543Z,2.37
2023-03-06T12:28:47.445Z,2.37
2023-03-06T12:29:47.432Z,2.35
2023-03-06T12:30:47.439Z,2.34
2023-03-06T12:31:47.540Z,2.37
2023-03-06T12:32:47.535Z,2.26
2023-03-06T12:33:47.471Z,2.28
2023-03-06T12:34:47.513Z,2.30
2023-03-06T12:35:47.634Z,2.26
2023-03-06T12:36:47.607Z,2.24
2023-03-06T12:37:47.640Z,2.23
2023-03-06T12:38:47.649Z,2.20
2023-03-06T12:39:47.654Z,2.18
2023-03-06T12:40:47.698Z,2.16
2023-03-06T12:41:47.764Z,2.15
2023-03-06T12:42:47.816Z,2.14
2023-03-06T12:43:47.880Z,2.16
2023-03-06T12:44:47.926Z,2.13
2023-03-06T12:45:48.040Z,2.11
2023-03-06T12:46:48.038Z,2.11
2023-03-06T12:47:48.098Z,2.08
2023-03-06T12:48:48.156Z,2.03
2023-03-06T12:49:48.517Z,2.03
2023-03-06T12:50:48.267Z,2.03
2023-03-06T12:51:48.324Z,2.07
2023-03-06T12:52:48.451Z,2.01
2023-03-06T12:53:48.501Z,2.00
2023-03-06T12:54:48.538Z,2.02
2023-03-06T12:55:48.600Z,1.97
2023-03-06T12:56:48.656Z,1.95
2023-03-06T12:57:48.660Z,1.99
2023-03-06T12:58:48.700Z,1.97
2023-03-06T12:59:48.736Z,1.91
2023-03-06T13:00:52.582Z,1.92
2023-03-06T13:01:49.853Z,1.92
2023-03-06T13:02:48.960Z,1.91
2023-03-06T13:03:48.879Z,1.87
2023-03-06T13:04:48.824Z,1.89
2023-03-06T13:05:48.838Z,1.91
2023-03-06T13:06:50.915Z,1.86
2023-03-06T13:07:48.875Z,1.85
2023-03-06T13:08:48.930Z,1.82
2023-03-06T13:09:48.968Z,1.85
2023-03-06T13:10:49.031Z,1.82
2023-03-06T13:11:49.060Z,1.83
2023-03-06T13:12:50.055Z,1.79
2023-03-06T13:13:49.140Z,1.81
2023-03-06T13:14:54.612Z,1.79
2023-03-06T13:15:50.201Z,1.79
2023-03-06T13:16:49.285Z,1.79
2023-03-06T13:17:49.250Z,1.79
2023-03-06T13:18:49.225Z,1.76
2023-03-06T13:19:49.291Z,1.77
2023-03-06T13:20:49.286Z,1.75
2023-03-06T13:21:49.249Z,1.72
2023-03-06T13:22:49.263Z,1.72
2023-03-06T13:23:49.282Z,1.72
2023-03-06T13:24:50.832Z,1.70
2023-03-06T13:25:49.342Z,1.71
2023-03-06T13:26:49.294Z,1.71
2023-03-06T13:27:49.315Z,1.67
2023-03-06T13:28:49.318Z,1.67
2023-03-06T13:29:49.317Z,1.65
2023-03-06T13:30:51.375Z,1.64
2023-03-06T13:31:50.581Z,1.64
2023-03-06T13:32:49.652Z,1.64
2023-03-06T13:33:49.737Z,1.64
2023-03-06T13:34:49.806Z,1.62
2023-03-06T13:35:49.980Z,1.62
2023-03-06T13:36:49.959Z,1.64
2023-03-06T13:37:49.904Z,1.61
2023-03-06T13:38:49.927Z,1.58
2023-03-06T13:39:50.556Z,1.54
2023-03-06T13:40:49.997Z,1.57
2023-03-06T13:41:49.974Z,1.55
2023-03-06T13:42:49.993Z,1.55
2023-03-06T13:43:50.018Z,1.54
2023-03-06T13:44:50.011Z,1.52
2023-03-06T13:45:50.147Z,1.53
2023-03-06T13:46:50.078Z,1.50
2023-03-06T13:48:15.541Z,1.50
2023-03-06T13:48:51.979Z,1.50
2023-03-06T13:49:50.097Z,1.51
2023-03-06T13:50:50.099Z,1.48
2023-03-06T13:51:50.113Z,1.49
2023-03-06T13:52:50.125Z,1.49
2023-03-06T13:53:50.148Z,1.49
2023-03-06T13:54:50.125Z,1.47
2023-03-06T13:55:50.134Z,1.44
2023-03-06T13:56:50.125Z,1.46
2023-03-06T13:57:50.144Z,1.47
2023-03-06T13:58:50.175Z,1.43
2023-03-06T13:59:54.406Z,1.42
2023-03-06T14:00:51.175Z,1.42
2023-03-06T14:01:50.224Z,1.43
2023-03-06T14:02:50.195Z,1.43
2023-03-06T14:03:50.176Z,1.42
2023-03-06T14:04:50.161Z,1.41
2023-03-06T14:05:50.182Z,1.40
2023-03-06T14:06:50.182Z,1.39
2023-03-06T14:07:50.181Z,1.39
2023-03-06T14:08:50.270Z,1.37
2023-03-06T14:09:50.192Z,1.37
2023-03-06T14:10:50.207Z,1.36
2023-03-06T14:11:50.258Z,1.38
2023-03-06T14:12:50.232Z,1.37
2023-03-06T14:13:50.210Z,1.38
2023-03-06T14:14:50.254Z,1.34
2023-03-06T15:25:52.732Z,1.06
2023-03-06T15:26:53.595Z,1.04
2023-03-06T15:27:53.585Z,1.05
2023-03-06T15:28:59.796Z,1.05
2023-03-06T15:29:53.786Z,1.05
2023-03-06T15:30:52.799Z,1.05
2023-03-06T15:31:52.808Z,1.04
2023-03-06T15:32:52.798Z,1.03
2023-03-06T15:33:52.829Z,1.04
2023-03-06T15:34:52.844Z,1.04
2023-03-06T15:35:52.854Z,1.04
2023-03-06T15:36:52.845Z,1.03
2023-03-06T15:37:52.870Z,1.03
2023-03-06T15:38:52.856Z,1.03
2023-03-06T15:39:52.864Z,1.04
2023-03-06T15:40:52.886Z,1.02
2023-03-06T15:41:52.877Z,1.01
2023-03-06T15:42:52.901Z,1.02
2023-03-06T15:43:53.590Z,1.02
2023-03-06T15:44:53.025Z,1.00
2023-03-06T15:45:52.998Z,1.00
2023-03-06T15:46:59.228Z,1.00
2023-03-06T15:47:53.937Z,1.00
2023-03-06T15:48:52.951Z,1.00
2023-03-06T15:49:53.038Z,1.01
2023-03-06T15:50:53.586Z,1.00
2023-03-06T15:51:52.989Z,0.99
2023-03-06T15:52:53.001Z,0.98
2023-03-06T15:53:54.981Z,0.98
2023-03-06T15:54:53.145Z,0.98
2023-03-06T15:55:53.036Z,0.97
2023-03-06T15:56:53.033Z,0.98
2023-03-06T15:57:53.117Z,0.98
2023-03-06T15:58:53.054Z,0.98
2023-03-06T15:59:53.599Z,0.99
2023-03-06T16:00:53.172Z,0.97
2023-03-06T16:01:53.095Z,0.99
2023-03-06T16:02:53.117Z,0.96
2023-03-06T16:03:53.248Z,0.96
2023-03-06T16:04:53.349Z,0.96
2023-03-06T16:05:53.289Z,0.96
2023-03-06T16:06:53.328Z,0.97
2023-03-06T16:07:53.427Z,0.95
2023-03-06T16:08:53.424Z,0.95
2023-03-06T16:09:53.490Z,0.96
2023-03-06T16:10:53.555Z,0.97
2023-03-06T16:11:53.596Z,0.94
2023-03-06T16:12:53.653Z,0.95
2023-03-06T16:13:53.709Z,0.95
2023-03-06T16:14:53.765Z,0.94
2023-03-06T16:15:53.830Z,0.94
2023-03-06T16:16:54.005Z,0.95
2023-03-06T16:17:53.935Z,0.94
2023-03-06T16:18:54.010Z,0.95
2023-03-06T16:19:54.077Z,0.94
2023-03-06T16:20:54.172Z,0.93
2023-03-06T16:21:54.219Z,0.94
2023-03-06T16:22:54.278Z,0.94
2023-03-06T16:23:54.610Z,0.93
2023-03-06T16:24:54.408Z,0.92
2023-03-06T16:25:54.528Z,0.93
2023-03-06T16:26:54.535Z,0.93
2023-03-06T16:27:54.600Z,0.94
2023-03-06T16:28:54.662Z,1.05
2023-03-06T16:29:54.724Z,1.07
2023-03-06T16:30:54.930Z,0.94
2023-03-06T16:31:54.856Z,0.86
2023-03-06T16:32:54.923Z,0.87
2023-03-06T16:33:54.984Z,0.90
2023-03-06T16:34:55.037Z,0.90
2023-03-06T16:35:55.130Z,0.90
2023-03-06T16:36:55.162Z,0.98
2023-03-06T16:37:55.217Z,1.49
2023-03-06T16:38:55.331Z,1.58
2023-03-06T16:39:55.327Z,1.86
2023-03-06T16:40:55.392Z,2.15
2023-03-06T16:41:55.460Z,1.56
2023-03-06T16:42:55.526Z,1.39
2023-03-06T16:43:55.571Z,1.34
2023-03-06T16:44:55.637Z,1.27
2023-03-06T16:45:55.758Z,1.36
2023-03-06T16:46:55.767Z,1.54
2023-03-06T16:47:55.895Z,1.57
2023-03-06T16:48:55.896Z,1.53
2023-03-06T16:49:55.991Z,1.69
2023-03-06T16:50:56.010Z,1.65
2023-03-06T16:51:56.080Z,1.61
2023-03-06T16:52:56.144Z,1.63
2023-03-06T16:53:56.229Z,1.56
2023-03-06T16:54:56.277Z,1.60
2023-03-06T16:55:56.345Z,1.51
2023-03-06T16:56:56.413Z,1.58
2023-03-06T16:57:56.490Z,1.54
2023-03-06T16:58:56.558Z,1.50
2023-03-06T16:59:56.629Z,1.48
2023-03-06T17:00:56.750Z,1.48
2023-03-06T17:01:56.762Z,1.48
2023-03-06T17:02:56.819Z,1.43
2023-03-06T17:03:56.885Z,1.48
2023-03-06T17:04:56.954Z,1.49
2023-03-06T17:05:57.035Z,1.41
2023-03-06T17:06:57.093Z,1.44
2023-03-06T17:07:57.152Z,1.41
2023-03-06T17:08:57.217Z,1.37
2023-03-06T17:09:57.285Z,1.35
2023-03-06T17:10:57.357Z,1.36
2023-03-06T18:31:03.306Z,0.92
2023-03-06T18:32:03.448Z,0.96
2023-03-06T18:33:03.465Z,0.95
2023-03-06T18:34:03.638Z,0.94
2023-03-06T18:35:03.620Z,0.92
2023-03-06T18:36:04.631Z,0.94
2023-03-06T18:37:03.767Z,0.94
2023-03-06T18:38:03.852Z,0.92
2023-03-06T18:39:04.022Z,0.92
2023-03-06T18:40:04.063Z,0.92
2023-03-06T18:41:04.087Z,0.91
2023-03-06T18:42:05.131Z,0.92
2023-03-06T18:43:04.251Z,0.91
2023-03-06T18:44:04.339Z,0.91
2023-03-06T18:45:04.417Z,0.90
2023-03-06T18:46:04.515Z,0.89
2023-03-06T18:47:04.569Z,0.90
2023-03-06T18:48:04.649Z,0.88
2023-03-06T18:49:04.723Z,0.90
2023-03-06T18:50:04.817Z,0.90
2023-03-06T18:51:04.887Z,0.90
2023-03-06T18:52:04.966Z,0.89
2023-03-06T18:53:05.067Z,0.88
2023-03-06T18:54:05.141Z,0.87
2023-03-06T18:55:05.209Z,0.90
2023-03-06T18:56:05.287Z,0.87
2023-03-06T18:57:05.365Z,0.86
2023-03-06T18:58:05.450Z,0.87
2023-03-06T18:59:05.563Z,0.87
2023-03-06T19:00:05.619Z,0.87
2023-03-06T19:01:05.711Z,0.86
2023-03-06T19:02:05.791Z,0.86
2023-03-06T19:03:05.861Z,0.85
2023-03-06T19:04:05.961Z,0.85
2023-03-06T19:05:06.019Z,0.85
2023-03-06T19:06:06.109Z,0.85
2023-03-06T19:07:07.144Z,0.86
2023-03-06T19:08:06.281Z,0.86
2023-03-06T19:09:06.376Z,0.85
2023-03-06T19:10:06.452Z,0.85
2023-03-06T19:11:06.532Z,0.84
2023-03-06T19:12:06.610Z,0.84
2023-03-06T19:13:06.700Z,0.84
2023-03-06T19:14:06.782Z,0.84
2023-03-06T19:15:06.846Z,0.83
2023-03-06T19:16:07.680Z,0.84
2023-03-06T20:34:13.329Z,0.72
2023-03-06T20:35:13.408Z,0.71
2023-03-06T20:36:13.468Z,0.70
2023-03-06T20:37:13.531Z,0.70
2023-03-06T20:38:13.607Z,0.70
2023-03-06T20:39:13.699Z,0.70
2023-03-06T20:40:13.834Z,0.69
2023-03-06T20:41:14.661Z,0.70
2023-03-06T20:42:13.956Z,0.69
2023-03-06T20:43:14.044Z,0.69
2023-03-06T20:44:14.137Z,0.70
2023-03-06T20:45:14.238Z,0.70
2023-03-06T20:46:14.327Z,0.68
2023-03-06T20:47:15.179Z,0.68
2023-03-06T20:48:14.422Z,0.69
2023-03-06T20:49:14.513Z,0.68
2023-03-06T20:50:14.578Z,0.68
2023-03-06T20:51:14.653Z,0.68
2023-03-06T20:52:14.717Z,0.67
2023-03-06T20:53:14.792Z,0.68
2023-03-06T20:54:14.861Z,0.69
2023-03-06T20:55:14.951Z,0.68
2023-03-06T20:56:15.042Z,0.67
2023-03-06T20:57:15.119Z,0.68
2023-03-06T20:58:15.193Z,0.67
2023-03-06T20:59:15.276Z,0.67
2023-03-06T21:00:15.369Z,0.68
2023-03-06T21:01:15.456Z,0.67
2023-03-06T21:02:16.171Z,0.67
2023-03-06T21:03:15.607Z,0.68
2023-03-06T21:04:15.711Z,0.67
2023-03-06T21:05:15.788Z,0.67
2023-03-06T21:06:15.878Z,0.65
2023-03-06T21:07:15.939Z,0.66
2023-03-06T21:08:16.002Z,0.66
2023-03-06T21:09:16.115Z,0.66
2023-03-06T21:10:16.162Z,0.66
2023-03-06T21:11:16.232Z,0.66
2023-03-06T21:12:16.319Z,0.66
2023-03-06T21:13:16.373Z,0.66
2023-03-06T21:14:16.484Z,0.66
2023-03-06T21:15:16.549Z,0.66
2023-03-06T21:17:16.788Z,0.65
2023-03-06T23:04:23.724Z,0.57
2023-03-06T23:20:24.210Z,0.57
2023-03-06T23:23:23.291Z,0.57
2023-03-06T23:24:23.374Z,0.56
2023-03-06T23:25:23.333Z,0.56
2023-03-06T23:26:23.350Z,0.56
2023-03-06T23:27:23.380Z,0.56
2023-03-06T23:28:23.399Z,0.55
2023-03-06T23:29:23.422Z,0.56
2023-03-06T23:30:23.452Z,0.56
2023-03-06T23:31:23.507Z,0.56
2023-03-06T23:32:23.561Z,0.56
2023-03-06T23:33:23.621Z,0.56
2023-03-06T23:34:23.691Z,0.56
2023-03-06T23:35:23.767Z,0.56
2023-03-06T23:36:23.808Z,0.56
2023-03-06T23:37:23.871Z,0.56
2023-03-06T23:38:23.922Z,0.56
2023-03-06T23:39:23.995Z,0.55
2023-03-06T23:40:24.035Z,0.55
2023-03-06T23:41:24.065Z,0.55
2023-03-06T23:42:24.117Z,0.55
2023-03-06T23:43:24.160Z,0.55
2023-03-06T23:44:24.191Z,0.55
2023-03-06T23:45:24.249Z,0.55
2023-03-06T23:46:24.363Z,0.55
2023-03-06T23:47:24.341Z,0.55
2023-03-06T23:48:24.383Z,0.54
2023-03-06T23:49:24.419Z,0.55
2023-03-06T23:50:24.465Z,0.54
2023-03-06T23:51:24.574Z,0.54
2023-03-06T23:52:24.592Z,0.55
2023-03-06T23:53:24.652Z,0.54
2023-03-06T23:54:24.702Z,0.55
2023-03-06T23:55:24.769Z,0.55
2023-03-06T23:56:24.878Z,0.54
2023-03-06T23:57:24.878Z,0.54
2023-03-06T23:58:24.968Z,0.54